Time;durP1;ratioP1;P1;durP2;ratioP2;P2;SDS_P1;SDS_P2;PMS_P1;PMS_P2;Temp;Humidity;BMP_temperature;BMP_pressure;BME280_temperature;BME280_humidity;BME280_pressure;Samples;Min_cycle;Max_cycle;Signal;HPM_P1;HPM_P2
2023/04/12 00:01:32;;;;;;;5.20;1.20;;;;;;;3.79;100.00;100218.31;5139328;28;20537;-71
2023/04/12 00:04:03;;;;;;;5.53;1.63;;;;;;;3.65;100.00;100208.16;5140895;28;20042;-72
2023/04/12 00:06:33;;;;;;;3.75;1.60;;;;;;;3.61;100.00;100206.47;5138476;28;20058;-69
2023/04/12 00:09:04;;;;;;;4.63;1.20;;;;;;;3.65;100.00;100213.31;5132378;28;20058;-70
2023/04/12 00:11:35;;;;;;;4.22;1.70;;;;;;;3.73;100.00;100205.47;5133643;28;20045;-71
2023/04/12 00:14:05;;;;;;;5.47;1.30;;;;;;;3.69;100.00;100202.09;5138218;28;20401;-72
2023/04/12 00:16:37;;;;;;;2.88;1.15;;;;;;;3.76;100.00;100197.69;5138288;28;20117;-71
2023/04/12 00:19:07;;;;;;;6.30;1.55;;;;;;;3.77;100.00;100187.31;5133057;28;20097;-73
2023/04/12 00:21:37;;;;;;;6.45;1.60;;;;;;;3.84;100.00;100172.56;5138286;28;20026;-71
2023/04/12 00:24:08;;;;;;;2.88;1.38;;;;;;;3.83;100.00;100163.13;5135031;28;20117;-70
2023/04/12 00:26:38;;;;;;;4.68;1.40;;;;;;;3.84;100.00;100155.34;5140040;28;20496;-72
2023/04/12 00:29:08;;;;;;;8.70;1.65;;;;;;;3.82;100.00;100153.66;5134695;28;20114;-72
2023/04/12 00:31:39;;;;;;;3.67;1.40;;;;;;;3.83;100.00;100142.44;5135662;28;20085;-71
2023/04/12 00:34:09;;;;;;;3.50;1.33;;;;;;;3.82;100.00;100139.00;5134102;28;20096;-72
2023/04/12 00:36:40;;;;;;;3.50;1.40;;;;;;;3.70;100.00;100138.31;5136352;28;20026;-73
2023/04/12 00:39:10;;;;;;;4.85;1.73;;;;;;;3.78;100.00;100132.16;5137790;28;20027;-71
2023/04/12 00:41:40;;;;;;;2.90;1.10;;;;;;;3.74;100.00;100127.94;5141358;28;20046;-72
2023/04/12 00:44:11;;;;;;;3.00;1.20;;;;;;;3.75;100.00;100124.47;5134611;28;20046;-71
2023/04/12 00:46:41;;;;;;;6.18;1.50;;;;;;;3.75;100.00;100124.47;5126721;28;20039;-71
2023/04/12 00:49:12;;;;;;;5.65;1.50;;;;;;;3.77;100.00;100121.88;5138362;28;20527;-72
2023/04/12 00:51:43;;;;;;;7.80;1.55;;;;;;;3.84;100.00;100110.56;5136383;28;20034;-72
2023/04/12 00:54:16;;;;;;;5.70;1.77;;;;;;;3.85;100.00;100114.84;5135629;28;20035;-72
2023/04/12 00:56:47;;;;;;;4.35;1.55;;;;;;;3.85;100.00;100109.66;5137174;28;20572;-71
2023/04/12 00:59:18;;;;;;;3.80;1.35;;;;;;;3.89;100.00;100101.84;5143334;28;20026;-72
2023/04/12 01:01:48;;;;;;;2.65;1.40;;;;;;;3.88;100.00;100102.72;5137749;28;20022;-69
2023/04/12 01:04:21;;;;;;;5.05;1.35;;;;;;;3.84;100.00;100095.91;5137244;28;20034;-71
2023/04/12 01:07:14;;;;;;;7.65;1.25;;;;;;;3.95;100.00;100094.00;5185110;23;20049;-72
2023/04/12 01:10:20;;;;;;;5.55;1.50;;;;;;;3.98;100.00;100095.69;5159386;28;20030;-72
2023/04/12 01:12:58;;;;;;;2.83;1.27;;;;;;;3.93;100.00;100095.75;5106414;28;20408;-72
2023/04/12 01:15:33;;;;;;;5.47;1.63;;;;;;;3.90;100.00;100093.22;5159109;28;20049;-73
2023/04/12 01:18:08;;;;;;;;;;;;;;;3.94;100.00;100087.13;5162873;28;20030;-71
2023/04/12 01:20:50;;;;;;;6.13;1.27;;;;;;;3.99;100.00;100084.47;5137844;28;19917;-73
2023/04/12 01:23:46;;;;;;;4.28;1.30;;;;;;;3.93;100.00;100082.81;5158746;28;20033;-72
2023/04/12 01:26:35;;;;;;;3.83;1.30;;;;;;;3.97;100.00;100076.72;5160248;28;20053;-72
2023/04/12 01:29:15;;;;;;;6.57;1.70;;;;;;;3.99;100.00;100080.13;5158800;28;20631;-73
2023/04/12 01:31:53;;;;;;;2.88;1.35;;;;;;;4.00;100.00;100071.53;5158933;28;20109;-73
2023/04/12 01:34:27;;;;;;;3.03;1.20;;;;;;;3.99;100.00;100071.53;5152806;28;20022;-73
2023/04/12 01:37:00;;;;;;;4.22;1.30;;;;;;;3.91;100.00;100069.06;5155634;28;20221;-73
2023/04/12 01:39:32;;;;;;;5.50;1.50;;;;;;;3.91;100.00;100063.91;5159770;28;20129;-73
2023/04/12 01:42:02;;;;;;;4.00;1.80;;;;;;;3.88;100.00;100061.38;5159433;28;20030;-73
2023/04/12 01:44:33;;;;;;;3.88;1.40;;;;;;;3.95;100.00;100051.78;5161745;28;20036;-73
2023/04/12 01:47:03;;;;;;;7.53;1.83;;;;;;;3.99;100.00;100043.09;5137374;28;20037;-73
2023/04/12 01:49:47;;;;;;;3.40;1.30;;;;;;;3.99;100.00;100043.94;5160705;28;20022;-73
2023/04/12 01:52:21;;;;;;;3.97;1.33;;;;;;;3.99;100.00;100033.59;5161086;28;20121;-73
2023/04/12 01:54:56;;;;;;;6.70;1.60;;;;;;;4.12;100.00;100035.09;5161087;28;20117;-73
2023/04/12 01:57:26;;;;;;;9.53;1.87;;;;;;;4.00;100.00;100025.00;5161038;28;20027;-72
2023/04/12 02:00:01;;;;;;;4.70;1.48;;;;;;;4.03;100.00;100014.59;5156702;28;20038;-72
2023/04/12 02:02:31;;;;;;;2.83;1.27;;;;;;;4.10;100.00;100018.75;5158421;28;20687;-73
2023/04/12 02:05:03;;;;;;;4.03;1.45;;;;;;;4.10;100.00;100013.59;5161281;28;20070;-72
2023/04/12 02:07:34;;;;;;;2.70;1.20;;;;;;;4.16;100.00;100007.44;5167899;28;20046;-73
2023/04/12 02:10:05;;;;;;;1.85;1.08;;;;;;;4.17;100.00;100002.25;5159522;28;20038;-70
2023/04/12 02:12:35;;;;;;;5.22;1.25;;;;;;;4.17;100.00;99999.69;5158969;28;20031;-71
2023/04/12 02:15:07;;;;;;;3.55;1.30;;;;;;;4.16;100.00;99995.34;5164180;28;20502;-71
2023/04/12 02:17:37;;;;;;;5.15;1.35;;;;;;;4.14;100.00;99984.19;5159240;28;20069;-72
2023/04/12 02:20:11;;;;;;;6.97;1.33;;;;;;;4.14;100.00;99975.59;5141482;28;20455;-73
2023/04/12 02:22:41;;;;;;;2.42;1.13;;;;;;;4.29;100.00;99973.56;5159251;28;20050;-72
2023/04/12 02:25:12;;;;;;;3.60;1.58;;;;;;;4.34;100.00;99974.34;5160485;28;20076;-73
2023/04/12 02:27:43;;;;;;;6.72;1.40;;;;;;;4.36;100.00;99959.63;5166534;28;20042;-70
2023/04/12 02:30:14;;;;;;;5.05;1.50;;;;;;;4.25;100.00;99963.31;5150883;28;20030;-72
2023/04/12 02:32:45;;;;;;;4.72;1.48;;;;;;;4.27;100.00;99949.47;5152960;28;20138;-73
2023/04/12 02:35:18;;;;;;;6.65;1.33;;;;;;;4.21;100.00;99954.78;5150428;28;20407;-73
2023/04/12 02:37:50;;;;;;;3.10;1.20;;;;;;;4.22;100.00;99938.38;5155486;28;20030;-72
2023/04/12 02:40:20;;;;;;;4.57;1.48;;;;;;;4.17;100.00;99932.44;5159813;28;20081;-72
2023/04/12 02:42:51;;;;;;;2.78;1.20;;;;;;;4.30;100.00;99933.03;5136785;28;20050;-72
2023/04/12 02:45:21;;;;;;;5.50;1.25;;;;;;;4.23;100.00;99936.63;5151577;28;20096;-72
2023/04/12 02:47:51;;;;;;;8.02;1.58;;;;;;;4.35;100.00;99934.66;5145957;28;20028;-70
2023/04/12 02:50:21;;;;;;;5.05;1.40;;;;;;;4.35;100.00;99926.91;5165363;28;20141;-72
2023/04/12 02:52:52;;;;;;;3.88;1.30;;;;;;;4.40;100.00;99925.06;5162559;28;20025;-72
2023/04/12 02:55:22;;;;;;;5.63;1.50;;;;;;;4.43;100.00;99916.41;5158254;28;20023;-72
2023/04/12 02:57:53;;;;;;;3.10;1.27;;;;;;;4.39;100.00;99913.00;5157301;28;20041;-70
2023/04/12 03:00:24;;;;;;;5.35;1.45;;;;;;;4.47;100.00;99905.91;5164618;28;20122;-72
2023/04/12 03:02:54;;;;;;;3.67;1.30;;;;;;;4.44;100.00;99903.41;5158532;28;20420;-72
2023/04/12 03:05:26;;;;;;;4.53;1.50;;;;;;;4.40;100.00;99906.09;5155458;28;20504;-72
2023/04/12 03:07:56;;;;;;;3.13;1.38;;;;;;;4.51;100.00;99905.00;5146640;28;20044;-72
2023/04/12 03:10:26;;;;;;;4.15;1.40;;;;;;;4.60;100.00;99901.34;5160724;28;20027;-72
2023/04/12 03:12:57;;;;;;;6.43;1.65;;;;;;;4.70;100.00;99895.94;5166007;28;20597;-72
2023/04/12 03:15:28;;;;;;;3.65;1.48;;;;;;;4.71;100.00;99891.59;5167615;28;20030;-72
2023/04/12 03:17:58;;;;;;;7.75;1.20;;;;;;;4.85;100.00;99894.72;5162117;28;20031;-72
2023/04/12 03:20:28;;;;;;;4.85;1.40;;;;;;;4.78;100.00;99891.41;5151083;28;20089;-72
2023/04/12 03:22:59;;;;;;;2.50;1.27;;;;;;;4.75;100.00;99893.22;5166897;28;20032;-72
2023/04/12 03:26:19;;;;;;;2.83;1.08;;;;;;;4.79;100.00;99879.34;5127033;28;20030;-72
2023/04/12 03:28:49;;;;;;;4.35;1.23;;;;;;;4.72;100.00;99876.03;5147568;28;20381;-71
2023/04/12 03:31:20;;;;;;;4.50;1.75;;;;;;;4.79;100.00;99866.41;5169018;28;20080;-72
2023/04/12 03:33:50;;;;;;;4.65;1.30;;;;;;;4.72;100.00;99859.66;5132690;28;20026;-71
2023/04/12 03:36:21;;;;;;;3.80;1.60;;;;;;;4.82;100.00;99858.56;5149958;28;20041;-71
2023/04/12 03:38:52;;;;;;;2.78;1.27;;;;;;;4.82;100.00;99853.38;5155412;28;20539;-72
2023/04/12 03:41:22;;;;;;;3.17;1.50;;;;;;;4.87;100.00;99841.16;5159680;28;20114;-71
2023/04/12 03:43:53;;;;;;;3.67;1.20;;;;;;;4.75;100.00;99847.50;5153376;28;20105;-72
2023/04/12 03:46:23;;;;;;;5.65;1.50;;;;;;;4.80;100.00;99835.28;5167429;28;20028;-72
2023/04/12 03:48:54;;;;;;;3.58;1.17;;;;;;;4.81;100.00;99836.16;5164923;28;20022;-72
2023/04/12 03:51:25;;;;;;;3.13;1.23;;;;;;;4.78;100.00;99831.06;5164571;28;20524;-72
2023/04/12 03:53:56;;;;;;;5.00;1.55;;;;;;;4.76;100.00;99831.09;5162706;28;20034;-72
2023/04/12 03:56:26;;;;;;;3.88;1.33;;;;;;;4.78;100.00;99816.38;5156584;28;20041;-72
2023/04/12 03:58:56;;;;;;;4.13;1.45;;;;;;;4.82;100.00;99810.22;5160168;28;20046;-72
2023/04/12 04:01:27;;;;;;;3.85;1.60;;;;;;;4.81;100.00;99805.94;5161985;28;20445;-71
2023/04/12 04:03:57;;;;;;;4.05;1.55;;;;;;;4.79;100.00;99792.19;5155439;28;20570;-72
2023/04/12 04:06:28;;;;;;;3.58;1.40;;;;;;;4.80;100.00;99793.88;5162442;28;20028;-72
2023/04/12 04:08:59;;;;;;;5.10;1.60;;;;;;;4.82;100.00;99789.50;5158612;28;20088;-72
2023/04/12 04:11:30;;;;;;;4.70;1.50;;;;;;;4.92;100.00;99787.53;5167488;28;20029;-72
2023/04/12 04:14:00;;;;;;;3.80;1.02;;;;;;;4.90;100.00;99779.84;5162935;28;20123;-72
2023/04/12 04:16:31;;;;;;;5.15;1.65;;;;;;;4.95;100.00;99777.97;5144388;28;20566;-73
2023/04/12 04:19:01;;;;;;;2.95;1.40;;;;;;;4.97;100.00;99781.34;5164562;28;20067;-72
2023/04/12 04:21:31;;;;;;;3.70;1.45;;;;;;;5.05;100.00;99768.22;5162046;28;20053;-73
2023/04/12 04:24:02;;;;;;;2.33;1.13;;;;;;;5.11;100.00;99774.09;5155359;28;20480;-73
2023/04/12 04:26:33;;;;;;;5.22;1.48;;;;;;;5.16;100.00;99767.03;5162057;28;20037;-72
2023/04/12 04:29:04;;;;;;;5.85;1.10;;;;;;;5.29;100.00;99758.06;5161862;28;20477;-72
2023/04/12 04:31:35;;;;;;;1.70;1.10;;;;;;;5.38;100.00;99753.47;5165326;28;20312;-73
2023/04/12 04:34:05;;;;;;;5.80;1.40;;;;;;;5.38;100.00;99747.44;5161785;28;20450;-72
2023/04/12 04:36:36;;;;;;;3.08;1.40;;;;;;;5.43;100.00;99748.16;5165213;28;20459;-71
2023/04/12 04:39:07;;;;;;;3.80;1.27;;;;;;;5.46;100.00;99742.88;5157772;28;20542;-71
2023/04/12 04:41:38;;;;;;;2.72;1.10;;;;;;;5.49;100.00;99727.25;5146924;28;20056;-70
2023/04/12 04:44:08;;;;;;;4.80;1.67;;;;;;;5.61;99.54;99725.16;5162454;28;20030;-70
2023/04/12 04:46:38;;;;;;;3.53;1.25;;;;;;;5.68;98.90;99725.81;5152087;28;20034;-71
2023/04/12 04:49:09;;;;;;;3.63;1.38;;;;;;;5.64;99.99;99727.69;5163796;28;20053;-72
2023/04/12 04:51:39;;;;;;;1.58;0.90;;;;;;;5.69;100.00;99725.78;5160417;28;20033;-72
2023/04/12 04:54:10;;;;;;;3.83;1.40;;;;;;;5.70;100.00;99705.88;5159150;28;20034;-72
2023/04/12 04:56:40;;;;;;;2.40;1.20;;;;;;;5.54;100.00;99713.28;5164990;28;20361;-73
2023/04/12 04:59:10;;;;;;;3.85;1.40;;;;;;;5.65;100.00;99712.97;5157878;28;20593;-72
2023/04/12 05:01:41;;;;;;;3.65;1.20;;;;;;;5.48;100.00;99721.25;5151120;28;20057;-72
2023/04/12 05:04:12;;;;;;;2.55;1.20;;;;;;;5.57;100.00;99712.34;5156630;28;20117;-72
2023/04/12 05:06:42;;;;;;;4.75;1.60;;;;;;;5.42;100.00;99702.44;5165176;28;20109;-73
2023/04/12 05:09:13;;;;;;;4.43;1.67;;;;;;;5.43;100.00;99710.13;5142120;28;20022;-72
2023/04/12 05:11:43;;;;;;;3.30;1.52;;;;;;;5.31;100.00;99709.66;5158444;28;20144;-73
2023/04/12 05:14:13;;;;;;;7.65;1.90;;;;;;;5.41;100.00;99711.09;5143941;28;20029;-73
2023/04/12 05:16:44;;;;;;;5.57;1.42;;;;;;;5.41;100.00;99703.31;5155079;28;20026;-73
2023/04/12 05:19:14;;;;;;;3.63;1.63;;;;;;;5.37;100.00;99693.94;5160382;28;20035;-73
2023/04/12 05:21:44;;;;;;;3.33;1.40;;;;;;;5.28;100.00;99699.38;5158450;28;20040;-72
2023/04/12 05:24:15;;;;;;;3.85;1.50;;;;;;;5.42;100.00;99692.06;5156526;28;20420;-73
2023/04/12 05:26:46;;;;;;;3.33;1.50;;;;;;;5.48;100.00;99695.31;5164153;28;20136;-73
2023/04/12 05:29:16;;;;;;;4.65;1.40;;;;;;;5.71;100.00;99692.06;5160873;28;20026;-72
2023/04/12 05:31:46;;;;;;;4.13;1.73;;;;;;;5.75;100.00;99685.88;5140498;28;20488;-72
2023/04/12 05:34:16;;;;;;;4.68;1.83;;;;;;;5.72;100.00;99685.97;5165355;28;20038;-73
2023/04/12 05:36:47;;;;;;;2.70;1.40;;;;;;;5.75;98.17;99676.34;5163308;28;20061;-70
2023/04/12 05:39:17;;;;;;;4.45;1.88;;;;;;;6.08;98.35;99664.13;5158211;28;20022;-72
2023/04/12 05:41:47;;;;;;;3.97;1.52;;;;;;;6.01;98.42;99660.00;5157532;28;20407;-71
2023/04/12 05:44:18;;;;;;;4.63;1.40;;;;;;;6.03;97.94;99660.81;5151817;28;20512;-72
2023/04/12 05:46:48;;;;;;;6.10;1.42;;;;;;;6.15;98.48;99650.03;5158594;28;20022;-71
2023/04/12 05:49:19;;;;;;;3.53;1.63;;;;;;;6.16;98.53;99646.56;5147548;28;20469;-72
2023/04/12 05:51:49;;;;;;;6.20;2.00;;;;;;;6.17;99.00;99637.88;5160608;28;20029;-73
2023/04/12 05:54:19;;;;;;;4.45;1.52;;;;;;;6.38;100.00;99637.16;5158654;28;20117;-72
2023/04/12 05:56:53;;;;;;;3.17;1.50;;;;;;;6.60;99.96;99632.94;5151609;28;20034;-73
2023/04/12 05:59:23;;;;;;;5.80;1.42;;;;;;;6.58;96.50;99629.56;5162835;28;20054;-72
2023/04/12 06:01:54;;;;;;;4.30;1.40;;;;;;;6.88;92.02;99612.88;5154694;28;20073;-73
2023/04/12 06:04:25;;;;;;;5.38;1.50;;;;;;;7.11;93.01;99620.69;5163099;28;20022;-73
2023/04/12 06:06:56;;;;;;;2.58;1.30;;;;;;;7.31;93.95;99632.88;5166568;28;20060;-72
2023/04/12 06:09:26;;;;;;;2.67;1.20;;;;;;;7.43;89.82;99628.97;5152581;28;20305;-73
2023/04/12 06:11:57;;;;;;;4.40;1.42;;;;;;;7.68;89.83;99620.16;5152609;28;20054;-73
2023/04/12 06:14:27;;;;;;;4.10;1.38;;;;;;;8.01;91.58;99618.81;5159748;28;20392;-72
2023/04/12 06:16:57;;;;;;;4.80;1.67;;;;;;;8.25;95.22;99612.63;5153699;28;20036;-71
2023/04/12 06:19:28;;;;;;;4.07;1.48;;;;;;;8.52;93.68;99616.69;5160234;28;20040;-72
2023/04/12 06:21:58;;;;;;;7.80;1.75;;;;;;;8.58;94.30;99613.00;5166903;28;20510;-72
2023/04/12 06:24:28;;;;;;;3.92;1.40;;;;;;;8.67;92.60;99605.63;5141259;28;20037;-72
2023/04/12 06:26:58;;;;;;;4.55;1.63;;;;;;;8.70;91.01;99595.06;5160552;28;20549;-71
2023/04/12 06:29:29;;;;;;;2.58;1.27;;;;;;;8.77;89.56;99591.31;5148819;28;20403;-73
2023/04/12 06:31:59;;;;;;;3.63;1.35;;;;;;;8.63;83.98;99578.03;5161955;28;20030;-73
2023/04/12 06:34:30;;;;;;;4.68;1.25;;;;;;;8.75;82.39;99576.66;5160689;28;20118;-73
2023/04/12 06:37:00;;;;;;;3.72;1.35;;;;;;;9.13;84.88;99576.63;5169652;28;20035;-72
2023/04/12 06:39:30;;;;;;;4.60;1.48;;;;;;;9.25;82.83;99578.66;5173485;28;20041;-72
2023/04/12 06:42:01;;;;;;;2.70;1.23;;;;;;;9.25;81.11;99578.66;5161729;28;20037;-72
2023/04/12 06:44:32;;;;;;;2.10;1.30;;;;;;;9.31;81.11;99570.56;5166471;28;20034;-71
2023/04/12 06:47:02;;;;;;;3.47;1.20;;;;;;;9.41;80.41;99561.38;5163472;28;20743;-72
2023/04/12 06:49:33;;;;;;;5.43;1.50;;;;;;;9.30;82.39;99561.88;5164429;28;20038;-72
2023/04/12 06:52:03;;;;;;;3.53;1.17;;;;;;;9.32;81.91;99549.63;5166327;28;20026;-72
2023/04/12 06:54:37;;;;;;;5.03;1.50;;;;;;;8.99;80.91;99550.34;5168718;28;20081;-73
2023/04/12 06:57:11;;;;;;;4.53;1.35;;;;;;;9.15;80.65;99551.34;5163195;28;20065;-72
2023/04/12 06:59:42;;;;;;;4.53;1.30;;;;;;;9.02;81.39;99544.13;5160703;28;20048;-71
2023/04/12 07:02:12;;;;;;;3.65;1.35;;;;;;;9.28;81.86;99534.22;5161346;28;20030;-71
2023/04/12 07:04:42;;;;;;;3.63;1.38;;;;;;;9.38;80.25;99538.91;5171126;28;20480;-71
2023/04/12 07:07:13;;;;;;;5.70;1.40;;;;;;;9.39;81.97;99529.31;5209201;23;20045;-70
2023/04/12 07:09:43;;;;;;;3.30;1.40;;;;;;;9.34;84.03;99526.09;5204663;28;20025;-71
2023/04/12 07:12:13;;;;;;;3.38;1.52;;;;;;;9.27;82.55;99524.66;5206106;28;20060;-71
2023/04/12 07:14:44;;;;;;;2.85;1.60;;;;;;;9.00;84.20;99515.56;5207655;28;20076;-72
2023/04/12 07:17:14;;;;;;;7.63;1.90;;;;;;;9.35;85.92;99517.34;5164943;28;20037;-73
2023/04/12 07:19:44;;;;;;;4.25;1.50;;;;;;;10.12;84.17;99511.78;5185775;28;20095;-72
2023/04/12 07:22:15;;;;;;;4.10;1.70;;;;;;;9.75;82.98;99509.28;5182925;28;20026;-72
2023/04/12 07:24:45;;;;;;;4.53;1.65;;;;;;;9.51;82.81;99497.44;5170681;28;20040;-73
2023/04/12 07:27:15;;;;;;;3.00;1.60;;;;;;;9.77;83.56;99491.78;5179630;28;20026;-72
2023/04/12 07:29:46;;;;;;;4.22;1.85;;;;;;;9.84;84.60;99495.81;5190521;28;20376;-72
2023/04/12 07:32:16;;;;;;;4.50;1.38;;;;;;;9.96;83.49;99485.59;5179874;28;20028;-71
2023/04/12 07:34:46;;;;;;;3.90;1.58;;;;;;;9.94;82.60;99476.13;5186099;28;20506;-71
2023/04/12 07:37:17;;;;;;;6.30;1.67;;;;;;;9.81;84.32;99482.91;5182192;28;20216;-72
2023/04/12 07:39:47;;;;;;;4.20;1.50;;;;;;;9.82;83.31;99482.81;5190531;28;20046;-70
2023/04/12 07:42:18;;;;;;;7.38;2.15;;;;;;;9.93;82.30;99475.31;5186358;28;20029;-73
2023/04/12 07:44:48;;;;;;;3.40;1.52;;;;;;;10.02;83.29;99467.03;5185422;28;20041;-70
2023/04/12 07:47:18;;;;;;;3.70;1.63;;;;;;;9.74;82.73;99477.16;5164611;28;20037;-71
2023/04/12 07:49:49;;;;;;;3.83;1.60;;;;;;;9.73;84.25;99466.78;5191204;28;20017;-69
2023/04/12 07:52:20;;;;;;;3.85;1.58;;;;;;;9.73;86.48;99457.19;5186118;28;20777;-72
2023/04/12 07:54:50;;;;;;;5.10;1.70;;;;;;;9.64;86.53;99460.25;5184756;28;20075;-73
2023/04/12 07:57:22;;;;;;;3.65;1.48;;;;;;;9.68;84.81;99456.56;5181889;28;20121;-72
2023/04/12 07:59:52;;;;;;;5.50;1.75;;;;;;;9.94;86.11;99450.03;5187169;28;20063;-72
2023/04/12 08:02:25;;;;;;;6.45;2.17;;;;;;;10.02;83.80;99440.09;5178727;28;20247;-71
2023/04/12 08:04:56;;;;;;;3.63;1.60;;;;;;;10.42;85.83;99431.84;5173165;28;20836;-69
2023/04/12 08:07:26;;;;;;;4.75;1.50;;;;;;;10.45;82.18;99418.63;5177499;28;20041;-71
2023/04/12 08:09:56;;;;;;;3.90;1.25;;;;;;;10.44;79.63;99424.78;5162123;28;20045;-71
2023/04/12 08:12:26;;;;;;;6.38;1.60;;;;;;;10.98;83.26;99406.94;5181645;28;20109;-73
2023/04/12 08:14:57;;;;;;;4.60;1.58;;;;;;;11.28;81.07;99413.06;5164387;28;20056;-71
2023/04/12 08:17:27;;;;;;;2.75;1.23;;;;;;;11.57;80.15;99399.19;5157701;28;20121;-71
2023/04/12 08:19:58;;;;;;;3.92;1.35;;;;;;;12.50;79.58;99396.94;5183625;28;20026;-73
2023/04/12 08:22:28;;;;;;;4.82;1.30;;;;;;;12.98;74.55;99393.03;5164133;28;20112;-72
2023/04/12 08:24:58;;;;;;;4.68;1.58;;;;;;;13.16;75.42;99384.81;5162261;28;20399;-70
2023/04/12 08:27:29;;;;;;;6.05;1.67;;;;;;;12.78;76.13;99399.50;5169549;28;20044;-72
2023/04/12 08:29:59;;;;;;;5.75;1.60;;;;;;;12.69;77.97;99397.50;5166932;28;20467;-73
2023/04/12 08:32:29;;;;;;;4.70;1.48;;;;;;;12.52;77.53;99384.59;5164276;28;20495;-73
2023/04/12 08:35:00;;;;;;;3.88;1.33;;;;;;;13.19;76.83;99371.50;5159968;28;20116;-72
2023/04/12 08:37:31;;;;;;;5.97;1.60;;;;;;;13.75;75.10;99363.34;5172160;28;20499;-72
2023/04/12 08:40:05;;;;;;;5.68;1.33;;;;;;;13.97;76.30;99366.19;5176826;28;20033;-73
2023/04/12 08:42:37;;;;;;;4.35;1.65;;;;;;;13.35;78.90;99351.19;5177870;28;20273;-73
2023/04/12 08:45:09;;;;;;;6.75;1.42;;;;;;;13.37;79.04;99346.69;5185528;28;20079;-72
2023/04/12 08:47:42;;;;;;;3.95;1.70;;;;;;;12.76;80.10;99341.09;5159217;28;20052;-74
2023/04/12 08:50:12;;;;;;;3.35;1.48;;;;;;;12.53;80.97;99339.09;5163559;28;20265;-70
2023/04/12 08:52:43;;;;;;;6.22;2.00;;;;;;;12.74;84.50;99332.50;5162630;28;20028;-70
2023/04/12 08:55:13;;;;;;;4.30;1.60;;;;;;;12.30;81.42;99326.59;5159046;28;20489;-72
2023/04/12 08:57:44;;;;;;;8.30;1.42;;;;;;;12.46;83.47;99322.06;5168259;28;20021;-72
2023/04/12 09:00:16;;;;;;;3.50;1.17;;;;;;;12.36;80.44;99313.13;5169140;28;20061;-73
2023/04/12 09:02:47;;;;;;;4.20;1.20;;;;;;;12.33;81.17;99313.28;5181030;28;20359;-72
2023/04/12 09:05:17;;;;;;;3.50;0.95;;;;;;;12.50;81.67;99299.97;5158994;28;20080;-69
2023/04/12 09:07:48;;;;;;;4.93;1.38;;;;;;;12.33;79.81;99300.19;5163279;28;20503;-69
2023/04/12 09:10:36;;;;;;;4.13;1.02;;;;;;;12.36;79.17;99302.66;5177432;28;20030;-72
2023/04/12 09:13:07;;;;;;;3.53;0.80;;;;;;;12.57;79.91;99289.94;5177299;28;20017;-73
2023/04/12 09:15:48;;;;;;;1.40;0.63;;;;;;;12.27;77.74;99284.88;5160013;28;20026;-72
2023/04/12 09:18:18;;;;;;;2.33;0.68;;;;;;;12.18;76.41;99284.59;5169338;28;20183;-71
2023/04/12 09:20:48;;;;;;;2.03;0.65;;;;;;;12.16;76.14;99287.31;5180366;28;20030;-71
2023/04/12 09:23:25;;;;;;;5.75;0.95;;;;;;;12.37;78.01;99288.59;5176875;28;20026;-72
2023/04/12 09:25:55;;;;;;;4.53;0.80;;;;;;;12.49;80.21;99285.19;5160170;28;20121;-71
2023/04/12 09:28:27;;;;;;;2.63;0.70;;;;;;;12.31;79.70;99280.28;5178755;28;20014;-72
2023/04/12 09:30:59;;;;;;;4.53;0.90;;;;;;;12.35;78.19;99282.63;5182875;28;20036;-72
2023/04/12 09:33:36;;;;;;;2.50;0.70;;;;;;;12.31;81.75;99281.09;5158876;28;20116;-71
2023/04/12 09:36:13;;;;;;;4.85;1.30;;;;;;;12.16;82.09;99270.78;5181693;28;20577;-72
2023/04/12 09:39:00;;;;;;;2.28;0.70;;;;;;;11.96;83.05;99269.38;5175559;28;20049;-73
2023/04/12 09:41:31;;;;;;;1.92;0.68;;;;;;;11.61;84.03;99270.69;5180255;28;20056;-70
2023/04/12 09:44:02;;;;;;;2.00;0.80;;;;;;;11.52;87.80;99276.47;5161145;28;20498;-72
2023/04/12 09:46:33;;;;;;;5.07;0.93;;;;;;;11.17;87.17;99264.63;5176479;28;20065;-71
2023/04/12 09:49:04;;;;;;;2.15;1.00;;;;;;;10.98;92.16;99272.78;5180822;28;20432;-73
2023/04/12 09:51:35;;;;;;;2.22;1.00;;;;;;;10.74;94.67;99271.59;5159024;28;20088;-72
2023/04/12 09:54:09;;;;;;;3.03;0.70;;;;;;;10.68;95.58;99258.88;5159303;28;20104;-73
2023/04/12 09:56:41;;;;;;;2.42;0.93;;;;;;;10.48;95.90;99272.22;5181671;28;20391;-72
2023/04/12 09:59:13;;;;;;;2.53;1.00;;;;;;;10.38;97.54;99263.22;5179992;28;20116;-71
2023/04/12 10:01:43;;;;;;;3.38;1.00;;;;;;;10.41;97.45;99257.81;5169083;28;20553;-73
2023/04/12 10:04:14;;;;;;;6.40;1.60;;;;;;;10.36;99.00;99254.63;5180892;28;20105;-71
2023/04/12 10:06:45;;;;;;;2.75;1.05;;;;;;;10.39;97.28;99249.22;5176620;28;20029;-72
2023/04/12 10:09:16;;;;;;;2.13;0.95;;;;;;;10.40;97.71;99253.53;5160122;28;20036;-71
2023/04/12 10:11:50;;;;;;;3.70;1.10;;;;;;;10.40;99.38;99250.91;5161488;28;20021;-72
2023/04/12 10:14:21;;;;;;;3.97;0.90;;;;;;;10.27;99.70;99245.53;5173138;28;20554;-72
2023/04/12 10:16:55;;;;;;;7.95;1.33;;;;;;;10.40;100.00;99243.06;5179041;28;20104;-72
2023/04/12 10:19:27;;;;;;;3.42;1.00;;;;;;;10.43;100.00;99233.31;5158515;28;20018;-73
2023/04/12 10:22:00;;;;;;;2.92;1.10;;;;;;;10.46;100.00;99227.03;5158510;28;20453;-71
2023/04/12 10:24:31;;;;;;;3.95;0.90;;;;;;;10.38;100.00;99224.03;5180386;28;20033;-72
2023/04/12 10:27:03;;;;;;;2.63;0.90;;;;;;;10.39;100.00;99220.50;5177389;28;20464;-71
2023/04/12 10:29:35;;;;;;;4.15;1.00;;;;;;;10.27;100.00;99227.25;5180500;28;20029;-72
2023/04/12 10:32:20;;;;;;;3.03;0.98;;;;;;;10.19;100.00;99226.81;5177008;28;20065;-72
2023/04/12 10:34:56;;;;;;;2.55;0.90;;;;;;;9.99;100.00;99221.00;5179855;28;20526;-72
2023/04/12 10:38:02;;;;;;;4.75;1.05;;;;;;;9.95;100.00;99216.84;5182730;28;20087;-73
2023/04/12 10:40:33;;;;;;;2.78;0.90;;;;;;;9.86;100.00;99218.19;5183375;28;20027;-72
2023/04/12 10:43:21;;;;;;;2.20;0.80;;;;;;;9.79;100.00;99216.03;5183001;28;20030;-72
2023/04/12 10:45:52;;;;;;;2.38;0.88;;;;;;;9.75;100.00;99207.53;5172064;28;20033;-73
2023/04/12 10:48:51;;;;;;;4.40;0.90;;;;;;;9.72;100.00;99212.06;5176923;28;20077;-72
2023/04/12 10:51:27;;;;;;;4.28;0.88;;;;;;;9.73;100.00;99208.50;5177222;28;20029;-72
2023/04/12 10:54:06;;;;;;;3.83;1.13;;;;;;;9.56;100.00;99213.78;5180686;28;20033;-72
2023/04/12 10:56:41;;;;;;;3.35;1.00;;;;;;;9.61;100.00;99211.78;5186697;28;20029;-71
2023/04/12 10:59:15;;;;;;;2.33;0.93;;;;;;;9.52;100.00;99214.88;5183901;28;20466;-72
2023/04/12 11:02:11;;;;;;;2.67;1.10;;;;;;;9.50;100.00;99206.31;5174301;28;20034;-71
2023/04/12 11:05:18;;;;;;;2.37;1.20;;;;;;;9.49;100.00;99208.06;5161795;28;20079;-72
2023/04/12 11:07:52;;;;;;;3.83;1.10;;;;;;;9.49;100.00;99205.44;5111272;29;20075;-69
2023/04/12 11:10:25;;;;;;;1.67;0.90;;;;;;;9.41;100.00;99204.16;5176645;28;20569;-73
2023/04/12 11:13:07;;;;;;;2.10;0.90;;;;;;;9.44;100.00;99198.78;5183144;28;20026;-73
2023/04/12 11:15:39;;;;;;;2.28;0.80;;;;;;;9.32;100.00;99199.47;5154998;28;20637;-73
2023/04/12 11:18:10;;;;;;;2.13;0.90;;;;;;;9.27;100.00;99198.84;5158856;28;20068;-72
2023/04/12 11:20:40;;;;;;;4.78;1.10;;;;;;;9.35;100.00;99188.88;5185773;28;20029;-72
2023/04/12 11:23:11;;;;;;;3.55;0.80;;;;;;;9.38;100.00;99184.34;5184073;28;20037;-69
2023/04/12 11:25:43;;;;;;;2.53;1.00;;;;;;;9.32;100.00;99183.81;5180789;28;20074;-72
2023/04/12 11:28:17;;;;;;;1.88;0.70;;;;;;;9.36;100.00;99185.34;5183853;28;20384;-72
2023/04/12 11:30:57;;;;;;;2.30;0.75;;;;;;;9.30;100.00;99177.84;5177002;28;20287;-72
2023/04/12 11:33:38;;;;;;;2.95;0.82;;;;;;;9.31;100.00;99177.75;5174585;28;20117;-71
2023/04/12 11:36:13;;;;;;;1.67;0.90;;;;;;;9.24;100.00;99171.19;5165492;28;20036;-72
2023/04/12 11:38:44;;;;;;;3.63;0.85;;;;;;;9.18;100.00;99171.47;5161613;28;20558;-72
2023/04/12 11:41:17;;;;;;;6.85;0.95;;;;;;;9.17;100.00;99166.38;5164119;28;20034;-72
2023/04/12 11:43:47;;;;;;;1.48;0.70;;;;;;;9.16;100.00;99164.69;5182210;28;20051;-73
2023/04/12 11:46:18;;;;;;;1.67;0.70;;;;;;;9.24;100.00;99157.28;5181334;28;20030;-72
2023/04/12 11:48:48;;;;;;;3.40;1.13;;;;;;;9.16;100.00;99156.88;5171990;28;20355;-69
2023/04/12 11:51:26;;;;;;;4.28;1.13;;;;;;;9.29;100.00;99163.13;5157512;28;20026;-72
2023/04/12 11:53:57;;;;;;;2.17;0.80;;;;;;;9.27;100.00;99159.72;5183472;28;20033;-71
2023/04/12 11:56:28;;;;;;;3.47;0.90;;;;;;;9.26;100.00;99158.91;5183569;28;20022;-72
2023/04/12 11:58:58;;;;;;;2.47;1.05;;;;;;;9.34;100.00;99158.50;5168202;28;20299;-70